Time;durP1;ratioP1;P1;durP2;ratioP2;P2;SDS_P1;SDS_P2;PMS_P1;PMS_P2;Temp;Humidity;BMP_temperature;BMP_pressure;BME280_temperature;BME280_humidity;BME280_pressure;Samples;Min_cycle;Max_cycle;Signal;HPM_P1;HPM_P2
2023/09/07 00:01:48;;;;;;;12.75;10.40;;;;;;;17.73;100.00;101864.06;5063039;28;20020;-74
2023/09/07 00:04:13;;;;;;;13.05;10.75;;;;;;;17.67;100.00;101859.00;5063930;28;20064;-74
2023/09/07 00:06:43;;;;;;;12.88;11.18;;;;;;;17.69;100.00;101855.41;5062423;28;20077;-74
2023/09/07 00:09:10;;;;;;;12.35;10.63;;;;;;;17.67;100.00;101854.59;5063028;28;20556;-74
2023/09/07 00:11:36;;;;;;;12.90;10.65;;;;;;;17.63;100.00;101853.00;5062715;28;20090;-74
2023/09/07 00:14:01;;;;;;;11.95;10.15;;;;;;;17.62;100.00;101851.25;5064125;28;20506;-74
2023/09/07 00:16:26;;;;;;;12.32;10.18;;;;;;;17.63;100.00;101854.78;5062943;28;20060;-74
2023/09/07 00:18:52;;;;;;;14.48;10.43;;;;;;;17.55;100.00;101847.97;5063046;28;20090;-74
2023/09/07 00:21:17;;;;;;;18.58;11.50;;;;;;;17.55;100.00;101847.97;5063086;28;20028;-74
2023/09/07 00:23:42;;;;;;;12.63;9.93;;;;;;;17.52;100.00;101852.50;5062260;28;20043;-74
2023/09/07 00:26:08;;;;;;;13.15;10.55;;;;;;;17.47;100.00;101846.56;5063602;28;20112;-74
2023/09/07 00:28:33;;;;;;;12.65;11.27;;;;;;;17.43;100.00;101853.72;5063541;28;20116;-74
2023/09/07 00:30:59;;;;;;;12.18;10.85;;;;;;;17.43;100.00;101853.72;5062229;28;20159;-74
2023/09/07 00:33:25;;;;;;;12.35;10.52;;;;;;;17.41;100.00;101845.00;5067064;28;20112;-74
2023/09/07 00:35:50;;;;;;;15.05;12.32;;;;;;;17.38;100.00;101837.19;5059360;28;20036;-74
2023/09/07 00:38:16;;;;;;;17.65;12.25;;;;;;;17.34;100.00;101834.75;5046826;28;20024;-74
2023/09/07 00:40:47;;;;;;;13.75;12.05;;;;;;;17.35;100.00;101833.81;5062143;28;20137;-74
2023/09/07 00:43:13;;;;;;;16.27;11.30;;;;;;;17.28;100.00;101838.44;5061723;28;20032;-74
2023/09/07 00:45:39;;;;;;;15.57;11.32;;;;;;;17.25;100.00;101836.78;5061658;28;20384;-74
2023/09/07 00:48:05;;;;;;;17.10;12.88;;;;;;;17.25;100.00;101841.19;5061905;28;20032;-74
2023/09/07 00:50:31;;;;;;;14.88;12.10;;;;;;;17.23;100.00;101840.38;5063943;28;20490;-74
2023/09/07 00:52:57;;;;;;;13.60;11.82;;;;;;;17.22;100.00;101841.28;5063324;28;20464;-74
2023/09/07 00:55:23;;;;;;;17.63;12.45;;;;;;;17.19;100.00;101846.66;5062042;28;20383;-74
2023/09/07 00:57:49;;;;;;;14.07;12.45;;;;;;;17.12;100.00;101843.38;5064674;28;20025;-74
2023/09/07 01:00:14;;;;;;;15.20;13.55;;;;;;;17.16;100.00;101845.00;5060020;28;20047;-74
2023/09/07 01:02:39;;;;;;;17.48;13.05;;;;;;;17.08;100.00;101847.91;5067616;28;20028;-74
2023/09/07 01:05:06;;;;;;;16.65;13.98;;;;;;;17.05;100.00;101840.09;5063118;28;20361;-74
2023/09/07 01:07:42;;;;;;;17.65;13.35;;;;;;;17.08;100.00;101845.28;5071314;28;20059;-74
2023/09/07 01:10:08;;;;;;;19.83;14.48;;;;;;;17.07;100.00;101847.97;5063873;28;20068;-74
2023/09/07 01:12:33;;;;;;;16.33;13.15;;;;;;;17.03;100.00;101835.78;5070859;28;20059;-74
2023/09/07 01:14:59;;;;;;;16.73;14.13;;;;;;;17.02;100.00;101834.09;5063821;28;20047;-74
2023/09/07 01:17:25;;;;;;;17.08;14.25;;;;;;;16.99;100.00;101842.09;5070303;28;20418;-74
2023/09/07 01:19:52;;;;;;;17.92;15.65;;;;;;;16.96;100.00;101844.84;5064231;28;20036;-74
2023/09/07 01:22:24;;;;;;;17.30;15.40;;;;;;;16.90;100.00;101840.63;5063259;28;20021;-74
2023/09/07 01:24:52;;;;;;;16.75;14.95;;;;;;;16.89;100.00;101841.53;5064414;28;20029;-74
2023/09/07 01:27:17;;;;;;;17.77;15.85;;;;;;;16.87;100.00;101843.34;5068683;28;20043;-74
2023/09/07 01:29:43;;;;;;;18.60;15.77;;;;;;;16.79;100.00;101834.88;5066671;28;20103;-74
2023/09/07 01:32:09;;;;;;;19.63;16.30;;;;;;;16.79;100.00;101837.50;5065863;28;20059;-74
2023/09/07 01:34:35;;;;;;;19.75;16.65;;;;;;;16.77;100.00;101837.53;5066449;28;20020;-74
2023/09/07 01:37:00;;;;;;;19.30;15.13;;;;;;;16.76;100.00;101827.06;5065096;28;20091;-75
2023/09/07 01:39:26;;;;;;;19.15;16.17;;;;;;;16.60;100.00;101813.53;5064679;28;20024;-74
2023/09/07 01:41:51;;;;;;;21.08;16.58;;;;;;;16.71;100.00;101834.22;5066418;28;20107;-74
2023/09/07 01:44:16;;;;;;;19.10;16.25;;;;;;;16.71;100.00;101831.59;5062647;28;20469;-74
2023/09/07 01:46:42;;;;;;;17.98;15.60;;;;;;;16.70;100.00;101828.09;5066783;28;20028;-74
2023/09/07 01:49:07;;;;;;;19.33;15.20;;;;;;;16.66;100.00;101823.00;5065474;28;20053;-74
2023/09/07 01:51:33;;;;;;;17.08;15.38;;;;;;;16.65;100.00;101821.28;5065537;28;20021;-74
2023/09/07 01:53:58;;;;;;;18.33;15.25;;;;;;;16.62;100.00;101823.09;5065934;28;20052;-74
2023/09/07 01:56:24;;;;;;;17.38;14.57;;;;;;;16.58;100.00;101812.72;5065553;28;20038;-74
2023/09/07 01:58:49;;;;;;;19.08;15.10;;;;;;;16.57;100.00;101830.28;5065995;28;20027;-74
2023/09/07 02:01:25;;;;;;;17.48;15.07;;;;;;;16.51;100.00;101824.34;5064556;28;20029;-74
2023/09/07 02:03:50;;;;;;;17.67;15.20;;;;;;;16.50;100.00;101823.50;5057086;28;20025;-74
2023/09/07 02:06:16;;;;;;;20.02;15.90;;;;;;;16.47;100.00;101825.38;5065898;28;20426;-74
2023/09/07 02:08:41;;;;;;;20.48;15.68;;;;;;;16.46;100.00;101818.38;5064483;28;20013;-74
2023/09/07 02:11:06;;;;;;;17.63;15.25;;;;;;;16.47;100.00;101828.84;5066194;28;20036;-74
2023/09/07 02:13:32;;;;;;;19.48;16.10;;;;;;;16.46;100.00;101821.03;5065244;28;20107;-74
2023/09/07 02:15:57;;;;;;;22.63;16.85;;;;;;;16.46;100.00;101821.03;5064257;28;20151;-74
2023/09/07 02:18:23;;;;;;;22.05;17.40;;;;;;;16.46;100.00;101821.88;5068312;28;20480;-75
2023/09/07 02:20:48;;;;;;;23.58;16.95;;;;;;;16.46;100.00;101821.03;5071989;28;20043;-74
2023/09/07 02:23:14;;;;;;;19.77;16.63;;;;;;;16.50;100.00;101815.59;5072657;28;20031;-74
2023/09/07 02:25:40;;;;;;;20.77;17.38;;;;;;;16.46;100.00;101819.25;5073628;28;20452;-74
2023/09/07 02:28:06;;;;;;;23.60;17.00;;;;;;;16.44;100.00;101814.94;5056933;28;20028;-75
2023/09/07 02:30:31;;;;;;;22.20;17.45;;;;;;;16.43;100.00;101808.81;5073607;28;20028;-74
2023/09/07 02:32:57;;;;;;;22.38;17.15;;;;;;;16.43;100.00;101819.34;5070619;28;20098;-74
2023/09/07 02:35:22;;;;;;;20.80;17.20;;;;;;;16.46;100.00;101815.75;5072707;28;20030;-75
2023/09/07 02:37:48;;;;;;;21.55;17.60;;;;;;;16.43;100.00;101816.72;5069617;28;20035;-74
2023/09/07 02:40:15;;;;;;;22.90;18.42;;;;;;;16.46;100.00;101819.25;5072826;28;20036;-74
2023/09/07 02:42:41;;;;;;;21.98;16.90;;;;;;;16.51;100.00;101816.44;5069028;28;20029;-74
2023/09/07 02:45:07;;;;;;;19.55;17.25;;;;;;;16.50;100.00;101817.38;5072623;28;20533;-74
2023/09/07 02:47:32;;;;;;;23.52;17.92;;;;;;;16.52;100.00;101816.41;5069248;28;20446;-75
2023/09/07 02:49:57;;;;;;;20.45;17.25;;;;;;;16.52;100.00;101824.31;5071525;28;20099;-74
2023/09/07 02:52:23;;;;;;;18.33;15.95;;;;;;;16.54;100.00;101825.09;5065592;28;20033;-74
2023/09/07 02:54:48;;;;;;;22.13;16.95;;;;;;;16.52;100.00;101816.41;5071489;28;20048;-74
2023/09/07 02:57:13;;;;;;;21.38;16.42;;;;;;;16.52;100.00;101813.78;5072589;28;20454;-75
2023/09/07 02:59:39;;;;;;;19.05;16.35;;;;;;;16.54;100.00;101809.31;5066816;28;20021;-74
2023/09/07 03:02:04;;;;;;;18.85;16.58;;;;;;;16.50;100.00;101812.97;5073734;28;20017;-74
2023/09/07 03:04:30;;;;;;;18.55;15.90;;;;;;;16.52;100.00;101813.78;5065570;28;20020;-74
2023/09/07 03:06:56;;;;;;;20.02;17.00;;;;;;;16.43;100.00;101800.06;5072852;28;20028;-74
2023/09/07 03:09:21;;;;;;;19.98;15.63;;;;;;;16.47;100.00;101807.81;5068453;28;20360;-74
2023/09/07 03:11:46;;;;;;;18.88;16.02;;;;;;;16.48;100.00;101812.16;5069500;28;20111;-74
2023/09/07 03:14:12;;;;;;;19.83;16.00;;;;;;;16.43;100.00;101807.97;5068141;28;20036;-74
2023/09/07 03:16:38;;;;;;;19.88;16.10;;;;;;;16.44;100.00;101821.06;5070108;28;20426;-74
2023/09/07 03:19:04;;;;;;;17.67;15.80;;;;;;;16.44;100.00;101814.94;5066911;28;20078;-75
2023/09/07 03:21:29;;;;;;;18.20;15.30;;;;;;;16.43;100.00;101811.44;5070274;28;20056;-74
2023/09/07 03:23:58;;;;;;;17.42;15.07;;;;;;;16.41;100.00;101821.16;5067394;28;20024;-75
2023/09/07 03:26:24;;;;;;;16.27;14.60;;;;;;;16.43;100.00;101815.84;5069522;28;20103;-75
2023/09/07 03:28:49;;;;;;;17.67;14.80;;;;;;;16.35;100.00;101810.84;5071354;28;20112;-74
2023/09/07 03:31:15;;;;;;;16.80;14.23;;;;;;;16.38;100.00;101814.25;5068144;28;20468;-74
2023/09/07 03:33:40;;;;;;;18.13;13.90;;;;;;;16.36;100.00;101810.78;5071281;28;20480;-74
2023/09/07 03:36:05;;;;;;;17.00;14.10;;;;;;;16.33;100.00;101812.66;5068816;28;20016;-74
2023/09/07 03:38:30;;;;;;;20.77;14.55;;;;;;;16.32;100.00;101817.06;5070155;28;20074;-74
2023/09/07 03:40:56;;;;;;;16.83;14.25;;;;;;;16.31;100.00;101812.69;5068341;28;20033;-74
2023/09/07 03:43:21;;;;;;;16.58;14.52;;;;;;;16.32;100.00;101818.84;5071429;28;20031;-74
2023/09/07 03:45:46;;;;;;;18.73;14.23;;;;;;;16.28;100.00;101822.47;5067215;28;20507;-74
2023/09/07 03:48:12;;;;;;;18.75;14.07;;;;;;;16.26;100.00;101821.66;5070730;28;20051;-75
2023/09/07 03:50:37;;;;;;;15.63;13.57;;;;;;;16.23;100.00;101813.88;5067364;28;20415;-75
2023/09/07 03:53:03;;;;;;;20.80;14.55;;;;;;;16.26;100.00;101819.03;5064374;28;20108;-75
2023/09/07 03:55:28;;;;;;;18.42;13.45;;;;;;;16.23;100.00;101822.63;5069638;28;20053;-75
2023/09/07 03:57:54;;;;;;;14.80;13.20;;;;;;;16.23;100.00;101817.34;5068512;28;20514;-75
2023/09/07 04:00:19;;;;;;;14.05;12.55;;;;;;;16.20;100.00;101819.22;5069657;28;20036;-75
2023/09/07 04:02:45;;;;;;;18.65;13.07;;;;;;;16.25;100.00;101827.81;5066039;28;20380;-75
2023/09/07 04:05:13;;;;;;;16.17;13.18;;;;;;;16.26;100.00;101832.19;5072614;28;20047;-75
2023/09/07 04:07:38;;;;;;;18.38;14.43;;;;;;;16.20;100.00;101829.75;5064023;28;20103;-75
2023/09/07 04:10:05;;;;;;;16.80;13.73;;;;;;;16.20;100.00;101825.34;5072579;28;20127;-75
2023/09/07 04:12:31;;;;;;;15.65;13.25;;;;;;;16.20;100.00;101820.06;5066090;28;20468;-75
2023/09/07 04:14:56;;;;;;;15.27;13.68;;;;;;;16.17;100.00;101817.53;5069628;28;20146;-75
2023/09/07 04:17:22;;;;;;;16.40;13.90;;;;;;;16.12;100.00;101822.97;5072351;28;20033;-75
2023/09/07 04:19:47;;;;;;;17.88;14.40;;;;;;;16.09;100.00;101816.94;5069295;28;20119;-75
2023/09/07 04:22:12;;;;;;;19.33;14.43;;;;;;;16.10;100.00;101819.50;5066014;28;20041;-75
2023/09/07 04:24:38;;;;;;;19.42;14.73;;;;;;;16.12;100.00;101828.22;5068972;28;20031;-75
2023/09/07 04:27:04;;;;;;;19.60;14.65;;;;;;;16.11;100.00;101825.63;5070945;28;20036;-75
2023/09/07 04:29:29;;;;;;;21.05;14.52;;;;;;;16.09;100.00;101830.94;5071450;28;20107;-75
2023/09/07 04:31:55;;;;;;;16.80;14.05;;;;;;;16.05;100.00;101826.66;5066439;28;20379;-75
2023/09/07 04:34:23;;;;;;;17.88;14.55;;;;;;;16.04;100.00;101838.09;5070952;28;20037;-75
2023/09/07 04:36:48;;;;;;;16.92;13.27;;;;;;;16.02;100.00;101832.03;5067385;28;20368;-75
2023/09/07 04:39:14;;;;;;;17.70;14.40;;;;;;;16.01;100.00;101835.56;5073219;28;20078;-75
2023/09/07 04:41:40;;;;;;;18.50;14.40;;;;;;;15.97;100.00;101833.94;5070895;28;20023;-75
2023/09/07 04:44:05;;;;;;;18.88;14.98;;;;;;;15.98;100.00;101835.66;5074755;28;20028;-75
2023/09/07 04:46:30;;;;;;;15.57;13.98;;;;;;;15.97;100.00;101833.09;5071582;28;20068;-75
2023/09/07 04:48:56;;;;;;;16.58;13.45;;;;;;;15.89;100.00;101821.03;5073052;28;20094;-75
2023/09/07 04:51:22;;;;;;;21.75;13.45;;;;;;;15.92;100.00;101830.56;5070815;28;20071;-75
2023/09/07 04:53:47;;;;;;;17.70;14.00;;;;;;;15.91;100.00;101826.22;5069680;28;20042;-75
2023/09/07 04:56:13;;;;;;;15.60;13.93;;;;;;;15.86;100.00;101825.53;5070439;28;20526;-75
2023/09/07 04:58:38;;;;;;;17.30;13.90;;;;;;;15.86;100.00;101830.78;5073845;28;20532;-75
2023/09/07 05:01:05;;;;;;;19.85;13.98;;;;;;;15.79;100.00;101819.56;5071003;28;20039;-75
2023/09/07 05:03:30;;;;;;;18.13;13.50;;;;;;;15.82;100.00;101822.09;5072825;28;20029;-75
2023/09/07 05:05:56;;;;;;;14.95;13.35;;;;;;;15.82;100.00;101832.63;5070792;28;20478;-75
2023/09/07 05:08:22;;;;;;;14.18;12.68;;;;;;;15.81;100.00;101837.94;5073490;28;20078;-75
2023/09/07 05:10:48;;;;;;;15.10;12.95;;;;;;;15.80;100.00;101846.72;5055919;28;20028;-75
2023/09/07 05:13:13;;;;;;;19.92;12.85;;;;;;;15.76;100.00;101829.31;5071427;28;20029;-75
2023/09/07 05:15:47;;;;;;;14.63;13.13;;;;;;;15.80;100.00;101849.38;5073562;28;20045;-75
2023/09/07 05:18:13;;;;;;;17.80;12.68;;;;;;;15.80;100.00;101849.38;5069747;28;20044;-75
2023/09/07 05:20:38;;;;;;;15.35;12.60;;;;;;;15.78;100.00;101853.78;5074597;28;20029;-75
2023/09/07 05:23:03;;;;;;;16.23;13.80;;;;;;;15.78;100.00;101840.66;5067984;28;20029;-75
2023/09/07 05:25:29;;;;;;;18.13;12.85;;;;;;;15.78;100.00;101848.53;5074381;28;20020;-75
2023/09/07 05:27:54;;;;;;;15.85;13.15;;;;;;;15.79;100.00;101843.22;5074223;28;20024;-75
2023/09/07 05:30:19;;;;;;;15.63;13.02;;;;;;;15.81;100.00;101843.19;5071323;28;20112;-75
2023/09/07 05:32:45;;;;;;;16.60;12.95;;;;;;;15.80;100.00;101846.72;5072759;28;20468;-75
2023/09/07 05:35:12;;;;;;;15.68;13.57;;;;;;;15.89;100.00;101849.06;5072565;28;20036;-75
2023/09/07 05:37:37;;;;;;;14.80;13.02;;;;;;;15.91;100.00;101842.88;5073521;28;20024;-75
2023/09/07 05:40:03;;;;;;;18.67;13.65;;;;;;;15.97;100.00;101851.50;5073597;28;20035;-75
2023/09/07 05:42:29;;;;;;;15.52;12.63;;;;;;;16.02;100.00;101853.09;5070577;28;20043;-75
2023/09/07 05:44:54;;;;;;;15.75;12.80;;;;;;;16.08;100.00;101859.91;5073917;28;20036;-75
2023/09/07 05:47:20;;;;;;;16.23;12.73;;;;;;;16.12;100.00;101854.53;5068311;28;20058;-75
2023/09/07 05:49:45;;;;;;;15.52;12.68;;;;;;;16.17;100.00;101858.78;5074207;28;20029;-75
2023/09/07 05:52:10;;;;;;;13.95;12.10;;;;;;;16.19;100.00;101860.47;5063206;28;20060;-75
2023/09/07 05:54:36;;;;;;;15.20;12.00;;;;;;;16.24;100.00;101862.94;5074612;28;20026;-75
2023/09/07 05:57:01;;;;;;;15.68;12.52;;;;;;;16.30;100.00;101865.38;5070061;28;20395;-75
2023/09/07 05:59:26;;;;;;;14.65;13.13;;;;;;;16.34;100.00;101869.63;5071774;28;20119;-75
2023/09/07 06:01:52;;;;;;;16.10;12.55;;;;;;;16.38;100.00;101868.63;5069972;28;20045;-75
2023/09/07 06:04:17;;;;;;;20.83;13.50;;;;;;;16.41;100.00;101860.63;5072361;28;20037;-75
2023/09/07 06:06:42;;;;;;;14.07;11.65;;;;;;;16.45;100.00;101864.91;5068451;28;20123;-75
2023/09/07 06:09:08;;;;;;;14.30;12.57;;;;;;;16.53;100.00;101873.41;5072315;28;20029;-75
2023/09/07 06:11:34;;;;;;;17.33;12.23;;;;;;;16.58;100.00;101876.78;5068719;28;20024;-75
2023/09/07 06:14:00;;;;;;;18.48;12.55;;;;;;;16.66;100.00;101876.50;5071419;28;20115;-75
2023/09/07 06:16:25;;;;;;;14.75;11.43;;;;;;;16.72;100.00;101878.94;5068743;28;20056;-75
2023/09/07 06:18:50;;;;;;;13.55;11.82;;;;;;;16.80;100.00;101884.00;5071476;28;20025;-75
2023/09/07 06:21:16;;;;;;;20.75;12.18;;;;;;;16.88;100.00;101881.97;5068049;28;20380;-75
2023/09/07 06:23:41;;;;;;;14.38;11.95;;;;;;;16.92;100.00;101880.94;5070882;28;20032;-75
2023/09/07 06:26:07;;;;;;;16.67;12.57;;;;;;;17.01;100.00;101885.91;5074021;28;20103;-75
2023/09/07 06:28:32;;;;;;;16.92;11.50;;;;;;;17.03;100.00;101873.53;5071989;28;20056;-75
2023/09/07 06:30:57;;;;;;;14.63;12.13;;;;;;;17.13;100.00;101882.00;5069862;28;20488;-75
2023/09/07 06:33:23;;;;;;;14.02;12.15;;;;;;;17.20;100.00;101890.53;5072780;28;20032;-75
2023/09/07 06:35:48;;;;;;;14.50;10.90;;;;;;;17.28;100.00;101885.88;5068599;28;20025;-75
2023/09/07 06:38:13;;;;;;;15.05;12.07;;;;;;;17.35;100.00;101882.13;5072363;28;20043;-75
2023/09/07 06:40:39;;;;;;;17.45;11.20;;;;;;;17.34;100.00;101872.50;5069150;28;20025;-75
2023/09/07 06:43:05;;;;;;;15.60;11.20;;;;;;;17.49;100.00;101885.13;5071728;28;20029;-75
2023/09/07 06:45:36;;;;;;;14.10;11.60;;;;;;;17.57;100.00;101892.75;5069091;28;20017;-75
2023/09/07 06:48:03;;;;;;;14.50;10.98;;;;;;;17.63;100.00;101879.34;5065062;28;20048;-75
2023/09/07 06:50:29;;;;;;;12.23;10.60;;;;;;;17.71;100.00;101889.63;5070336;28;20025;-75
2023/09/07 06:52:54;;;;;;;15.80;10.95;;;;;;;17.80;100.00;101885.81;5067034;28;20019;-75
2023/09/07 06:55:20;;;;;;;13.65;10.25;;;;;;;17.87;100.00;101890.81;5071216;28;20376;-75
2023/09/07 06:57:45;;;;;;;15.75;10.93;;;;;;;17.93;100.00;101893.22;5067968;28;20077;-75
2023/09/07 07:00:11;;;;;;;12.82;10.85;;;;;;;17.98;100.00;101888.63;5073898;28;20036;-75
2023/09/07 07:02:37;;;;;;;13.27;10.43;;;;;;;18.04;100.00;101891.94;5064791;28;20048;-75
2023/09/07 07:05:03;;;;;;;11.23;10.02;;;;;;;18.06;100.00;101882.19;5073342;28;20032;-75
2023/09/07 07:07:29;;;;;;;15.32;10.18;;;;;;;18.10;100.00;101887.28;5067125;28;20103;-75
2023/09/07 07:09:54;;;;;;;14.50;9.98;;;;;;;18.17;100.00;101887.91;5071551;28;20050;-75
2023/09/07 07:12:20;;;;;;;14.50;9.63;;;;;;;18.30;100.00;101899.72;5068457;28;20055;-75
2023/09/07 07:14:46;;;;;;;10.25;9.00;;;;;;;18.41;100.00;101902.81;5070505;28;20388;-75
2023/09/07 07:17:11;;;;;;;11.00;9.27;;;;;;;18.48;100.00;101908.72;5067467;28;20043;-75
2023/09/07 07:19:36;;;;;;;11.50;9.52;;;;;;;18.55;100.00;101904.91;5070227;28;20075;-75
2023/09/07 07:22:02;;;;;;;10.65;9.43;;;;;;;18.63;100.00;101894.88;5067693;28;20028;-75
2023/09/07 07:24:28;;;;;;;10.63;9.50;;;;;;;18.71;100.00;101900.72;5069527;28;20031;-74
2023/09/07 07:26:53;;;;;;;11.25;8.80;;;;;;;18.76;100.00;101895.25;5071422;28;20845;-75
2023/09/07 07:29:19;;;;;;;11.40;9.15;;;;;;;18.82;100.00;101894.16;5073226;28;20059;-75
2023/09/07 07:31:44;;;;;;;9.98;8.80;;;;;;;18.91;100.00;101891.16;5067950;28;20048;-75
2023/09/07 07:34:09;;;;;;;11.27;8.38;;;;;;;19.02;100.00;101898.63;5071653;28;20112;-75
2023/09/07 07:36:35;;;;;;;16.40;8.70;;;;;;;19.07;100.00;101900.16;5068469;28;20059;-75
2023/09/07 07:39:01;;;;;;;9.35;7.53;;;;;;;19.12;100.00;101887.56;5070437;28;20031;-75
2023/09/07 07:41:26;;;;;;;9.00;7.43;;;;;;;19.20;100.00;101892.56;5068799;28;20512;-75
2023/09/07 07:43:52;;;;;;;10.43;7.78;;;;;;;19.31;100.00;101892.94;5070711;28;20562;-75
2023/09/07 07:46:19;;;;;;;9.15;7.25;;;;;;;19.41;100.00;101890.75;5067567;28;20024;-75
2023/09/07 07:48:44;;;;;;;11.15;7.00;;;;;;;19.52;100.00;101898.22;5070525;28;20079;-75
2023/09/07 07:51:10;;;;;;;10.52;7.60;;;;;;;19.60;100.00;101890.81;5068043;28;20492;-75
2023/09/07 07:53:35;;;;;;;12.23;7.38;;;;;;;19.69;100.00;101890.44;5066513;28;20028;-75
2023/09/07 07:56:00;;;;;;;10.10;6.55;;;;;;;19.77;100.00;101888.28;5067922;28;20044;-75
2023/09/07 07:58:26;;;;;;;7.55;6.45;;;;;;;19.83;100.00;101873.94;5069496;28;20085;-75
2023/09/07 08:00:51;;;;;;;9.65;6.60;;;;;;;19.92;100.00;101875.31;5067073;28;20024;-75
2023/09/07 08:03:16;;;;;;;7.63;6.35;;;;;;;19.96;100.00;101874.22;5070146;28;20056;-75
2023/09/07 08:05:42;;;;;;;10.18;6.70;;;;;;;20.09;100.00;101878.00;5067863;28;20116;-75
2023/09/07 08:08:08;;;;;;;8.98;6.20;;;;;;;20.22;100.00;101871.19;5068266;28;20067;-75
2023/09/07 08:10:36;;;;;;;10.07;6.70;;;;;;;20.34;100.00;101872.41;5070526;28;20040;-75
2023/09/07 08:13:02;;;;;;;10.48;6.60;;;;;;;20.39;100.00;101872.19;5065505;28;20090;-75
2023/09/07 08:15:28;;;;;;;8.20;6.95;;;;;;;20.45;100.00;101875.41;5072370;28;20048;-75
2023/09/07 08:17:53;;;;;;;10.98;6.45;;;;;;;20.52;100.00;101871.53;5063798;28;20059;-75
2023/09/07 08:20:19;;;;;;;8.93;6.22;;;;;;;20.65;100.00;101869.16;5071833;28;20070;-75
2023/09/07 08:22:45;;;;;;;11.23;5.93;;;;;;;20.67;100.00;101855.84;5065221;28;20035;-75
2023/09/07 08:25:14;;;;;;;9.20;6.10;;;;;;;20.83;100.00;101858.56;5070515;28;20390;-75
2023/09/07 08:27:44;;;;;;;8.43;6.10;;;;;;;20.91;100.00;101853.75;5070185;28;20413;-76
2023/09/07 08:30:11;;;;;;;6.55;5.80;;;;;;;21.01;100.00;101855.84;5056206;28;20056;-75
2023/09/07 08:32:38;;;;;;;7.72;6.15;;;;;;;21.03;100.00;101846.03;5070275;28;20025;-75
2023/09/07 08:35:06;;;;;;;8.48;6.00;;;;;;;21.16;100.00;101859.50;5069178;28;20028;-75
2023/09/07 08:37:33;;;;;;;7.35;5.20;;;;;;;21.26;100.00;101852.78;5068515;28;20028;-75
2023/09/07 08:39:59;;;;;;;6.88;5.85;;;;;;;21.35;100.00;101850.59;5071102;28;20460;-75
2023/09/07 08:42:24;;;;;;;7.07;5.65;;;;;;;21.43;100.00;101861.69;5066149;28;20048;-75
2023/09/07 08:44:53;;;;;;;6.28;5.47;;;;;;;21.48;100.00;101854.31;5071893;28;20064;-75
2023/09/07 08:47:20;;;;;;;8.07;5.60;;;;;;;21.56;100.00;101849.47;5065647;28;20029;-76
2023/09/07 08:49:47;;;;;;;7.40;5.93;;;;;;;21.70;100.00;101860.19;5071265;28;20032;-75
2023/09/07 08:52:14;;;;;;;8.20;5.78;;;;;;;21.74;100.00;101840.53;5062912;28;20074;-75
2023/09/07 08:54:42;;;;;;;8.25;5.40;;;;;;;21.90;100.00;101847.63;5070617;28;20074;-75
2023/09/07 08:57:10;;;;;;;6.20;5.60;;;;;;;22.02;100.00;101854.06;5067249;28;20119;-75
2023/09/07 08:59:36;;;;;;;6.47;5.57;;;;;;;22.04;100.00;101833.59;5067707;28;20028;-75
2023/09/07 09:02:04;;;;;;;9.75;5.68;;;;;;;22.18;100.00;101842.53;5066303;28;20020;-76
2023/09/07 09:04:30;;;;;;;8.65;5.80;;;;;;;22.32;100.00;101838.22;5069548;28;20090;-75
2023/09/07 09:06:55;;;;;;;6.20;5.40;;;;;;;22.44;100.00;101846.34;5066770;28;20527;-75
2023/09/07 09:09:24;;;;;;;7.55;5.50;;;;;;;22.56;100.00;101844.81;5068968;28;20388;-75
2023/09/07 09:11:51;;;;;;;9.43;5.88;;;;;;;22.71;100.00;101837.72;5055071;28;20376;-75
2023/09/07 09:14:24;;;;;;;7.75;5.20;;;;;;;22.88;100.00;101836.72;5069870;28;20024;-75
2023/09/07 09:16:51;;;;;;;9.45;5.13;;;;;;;23.07;100.00;101841.84;5065475;28;20029;-75
2023/09/07 09:19:17;;;;;;;8.43;5.40;;;;;;;23.12;100.00;101850.41;5069398;28;20029;-75
2023/09/07 09:21:44;;;;;;;6.10;5.50;;;;;;;23.18;100.00;101836.72;5064303;28;20028;-75
2023/09/07 09:24:11;;;;;;;6.38;5.38;;;;;;;23.32;98.54;101841.22;5069187;28;20030;-75
2023/09/07 09:26:37;;;;;;;5.90;5.07;;;;;;;23.36;98.05;101840.06;5075009;28;20033;-75
2023/09/07 09:29:03;;;;;;;9.23;5.68;;;;;;;23.46;100.00;101833.22;5074417;28;20035;-75
2023/09/07 09:31:29;;;;;;;7.93;5.45;;;;;;;23.54;96.85;101836.28;5070549;28;20020;-75
2023/09/07 09:33:55;;;;;;;6.88;5.82;;;;;;;23.63;96.20;101833.97;5073659;28;20028;-75
2023/09/07 09:36:21;;;;;;;6.85;5.70;;;;;;;23.85;97.32;101836.16;5071488;28;20024;-75
2023/09/07 09:38:53;;;;;;;8.27;5.60;;;;;;;23.94;95.98;101827.59;5072457;28;20028;-75
2023/09/07 09:41:20;;;;;;;8.68;5.53;;;;;;;23.98;90.67;101821.97;5058550;28;20028;-76
2023/09/07 09:43:49;;;;;;;9.20;4.82;;;;;;;24.06;94.15;101824.97;5073323;28;20020;-75
2023/09/07 09:46:15;;;;;;;8.85;5.38;;;;;;;24.14;93.71;101820.97;5068127;28;20035;-75
2023/09/07 09:48:42;;;;;;;7.45;5.20;;;;;;;24.24;92.14;101825.59;5072811;28;20032;-75
2023/09/07 09:51:07;;;;;;;7.13;5.75;;;;;;;24.32;90.21;101822.41;5069765;28;20021;-75
2023/09/07 09:53:33;;;;;;;9.02;5.63;;;;;;;24.44;89.82;101815.47;5070857;28;20035;-75
2023/09/07 09:55:58;;;;;;;6.88;5.28;;;;;;;24.51;90.98;101817.59;5067767;28;20020;-75
2023/09/07 09:58:24;;;;;;;7.25;5.32;;;;;;;24.65;87.73;101821.16;5063831;28;20043;-75
2023/09/07 10:00:55;;;;;;;7.13;5.55;;;;;;;24.68;84.29;101819.13;5068849;28;20021;-75
2023/09/07 10:03:32;;;;;;;9.52;5.18;;;;;;;24.86;87.56;101822.38;5063462;28;20025;-75
2023/09/07 10:06:11;;;;;;;9.35;5.47;;;;;;;24.97;86.06;101814.47;5067904;28;20029;-75
2023/09/07 10:08:36;;;;;;;7.10;5.38;;;;;;;25.01;83.26;101820.47;5064718;28;20025;-75
2023/09/07 10:11:09;;;;;;;9.13;5.20;;;;;;;25.19;84.06;101816.56;5068649;28;20373;-75
2023/09/07 10:13:34;;;;;;;6.57;5.07;;;;;;;25.26;85.50;101816.97;5062743;28;20037;-75
2023/09/07 10:16:04;;;;;;;5.72;5.22;;;;;;;25.39;80.89;101809.81;5069945;28;20024;-75
2023/09/07 10:18:34;;;;;;;7.00;4.60;;;;;;;25.49;84.83;101807.34;5062273;28;20476;-75
2023/09/07 10:21:02;;;;;;;5.93;5.30;;;;;;;25.58;81.25;101809.38;5054461;28;20024;-75
2023/09/07 10:23:43;;;;;;;10.32;5.35;;;;;;;25.72;80.26;101812.84;5062572;28;20108;-75
2023/09/07 10:26:16;;;;;;;6.65;4.70;;;;;;;25.76;78.24;101807.16;5058308;28;20020;-75
2023/09/07 10:28:45;;;;;;;7.18;4.70;;;;;;;25.84;78.25;101806.66;5072595;28;20483;-76
2023/09/07 10:31:15;;;;;;;5.93;5.07;;;;;;;25.97;76.37;101801.28;5070223;28;20036;-75
2023/09/07 10:33:40;;;;;;;7.25;4.88;;;;;;;26.11;80.52;101803.78;5071901;28;20025;-75
2023/09/07 10:36:06;;;;;;;7.50;4.80;;;;;;;26.13;74.67;101804.53;5068761;28;20059;-75
2023/09/07 10:38:35;;;;;;;6.18;4.60;;;;;;;26.23;74.08;101800.19;5072538;28;20530;-75
2023/09/07 10:41:02;;;;;;;6.57;4.60;;;;;;;26.39;73.59;101803.44;5068710;28;20025;-75
2023/09/07 10:43:29;;;;;;;6.50;4.82;;;;;;;26.39;73.07;101787.38;5070840;28;20033;-75
2023/09/07 10:45:56;;;;;;;5.90;4.53;;;;;;;26.52;72.74;101786.47;5069247;28;20039;-75
2023/09/07 10:48:23;;;;;;;7.07;4.70;;;;;;;26.63;71.81;101785.69;5071059;28;20561;-75
2023/09/07 10:50:49;;;;;;;5.07;4.57;;;;;;;26.63;71.51;101783.84;5068999;28;20059;-75
2023/09/07 10:53:23;;;;;;;5.95;4.32;;;;;;;26.82;76.80;101777.94;5070644;28;20040;-75
2023/09/07 10:55:49;;;;;;;5.28;4.78;;;;;;;26.85;78.40;101778.56;5068021;28;20032;-75
2023/09/07 10:58:26;;;;;;;5.82;4.30;;;;;;;26.93;73.81;101782.44;5071779;28;20037;-75
2023/09/07 11:00:55;;;;;;;7.45;4.60;;;;;;;27.04;70.79;101777.97;5068662;28;20108;-75
2023/09/07 11:03:23;;;;;;;5.10;4.63;;;;;;;27.15;68.06;101771.81;5070519;28;20052;-75